.
WxDataArchive / Data Records for 2013-11-25
2013-11-24 November 2013 2013-11-26

Data Records for Monday, 25 November 2013

Time	Temp	Chill	HIndex	Humid	Dewpt	 Wind 	HiWind	WindDir	Rain 	Barom 
-----	----	-----	------	-----	-----	------	------	-------	-----	----- 
00:00	18.8	18.8	18.8	65	9.0	0	0	---	0.00	30.492 
00:05	18.8	18.8	18.8	65	9.0	0	0	---	0.00	30.492 
00:10	18.6	18.6	18.6	65	8.8	0	0	---	0.00	30.492 
00:15	18.4	18.4	18.4	66	9.0	0	1	292	0.00	30.490 
00:20	18.4	18.4	18.4	66	9.0	0	1	292	0.00	30.490 
00:25	18.4	18.4	18.4	66	9.0	0	1	292	0.00	30.490 
00:30	18.6	18.6	18.6	66	9.2	0	1	292	0.00	30.490 
00:35	18.6	18.6	18.6	66	9.2	0	1	292	0.00	30.490 
00:40	18.6	18.6	18.6	66	9.2	0	3	292	0.00	30.490 
00:45	18.6	18.6	18.6	65	8.8	0	2	292	0.00	30.487 
00:50	18.8	18.8	18.8	65	9.0	0	2	292	0.00	30.487 
00:55	18.8	18.8	18.8	65	9.0	0	2	292	0.00	30.487 
01:00	18.9	18.9	18.9	65	9.1	0	1	292	0.00	30.475 
01:05	18.9	18.9	18.9	65	9.1	0	2	292	0.00	30.475 
01:10	18.9	18.9	18.9	64	8.8	0	1	292	0.00	30.475 
01:15	18.9	18.9	18.9	64	8.8	0	2	292	0.00	30.468 
01:20	18.9	18.9	18.9	65	9.1	0	1	292	0.00	30.468 
01:25	18.9	18.9	18.9	65	9.1	0	1	292	0.00	30.468 
01:30	18.9	18.9	18.9	65	9.1	0	1	292	0.00	30.457 
01:35	18.9	18.9	18.9	65	9.1	0	1	292	0.00	30.457 
01:40	18.8	18.8	18.8	65	9.0	0	2	292	0.00	30.457 
01:45	18.8	18.8	18.8	65	9.0	0	1	292	0.00	30.453 
01:50	18.8	18.8	18.8	65	9.0	0	1	292	0.00	30.453 
01:55	18.8	18.8	18.8	65	9.0	0	1	292	0.00	30.453 
02:00	18.6	18.6	18.6	66	9.2	0	1	292	0.00	30.443 
02:05	18.6	18.6	18.6	66	9.2	0	1	292	0.00	30.443 
02:10	18.6	18.6	18.6	66	9.2	0	2	292	0.00	30.443 
02:15	18.8	18.8	18.8	65	9.0	0	1	292	0.00	30.438 
02:20	18.8	18.8	18.8	65	9.0	0	1	292	0.00	30.438 
02:25	18.8	18.8	18.8	65	9.0	0	0	---	0.00	30.438 
02:30	18.8	18.8	18.8	65	9.0	0	1	292	0.00	30.437 
02:35	18.8	18.8	18.8	65	9.0	0	0	---	0.00	30.437 
02:40	18.8	18.8	18.8	65	9.0	0	0	---	0.00	30.437 
02:45	18.8	18.8	18.8	65	9.0	0	1	292	0.00	30.435 
02:50	18.8	18.8	18.8	65	9.0	0	0	---	0.00	30.435 
02:55	18.6	18.6	18.6	65	8.8	0	1	292	0.00	30.435 
03:00	18.6	18.6	18.6	65	8.8	0	1	292	0.00	30.432 
03:05	18.6	18.6	18.6	65	8.8	0	0	---	0.00	30.432 
03:10	18.6	18.6	18.6	65	8.8	0	1	292	0.00	30.432 
03:15	18.8	18.8	18.8	65	9.0	0	1	292	0.00	30.425 
03:20	18.9	18.9	18.9	65	9.1	0	2	292	0.00	30.425 
03:25	19.2	19.2	19.2	65	9.4	0	1	292	0.00	30.425 
03:30	19.4	19.4	19.4	64	9.2	0	3	292	0.00	30.430 
03:35	19.5	19.5	19.5	64	9.3	0	1	292	0.00	30.430 
03:40	19.7	19.7	19.7	64	9.5	0	2	292	0.00	30.430 
03:45	19.7	19.7	19.7	64	9.5	0	2	292	0.00	30.427 
03:50	19.7	19.7	19.7	64	9.5	0	1	292	0.00	30.427 
03:55	19.7	19.7	19.7	65	9.9	0	1	292	0.00	30.427 
04:00	19.7	19.7	19.7	65	9.9	0	2	292	0.00	30.422 
04:05	19.7	19.7	19.7	65	9.9	0	1	292	0.00	30.422 
04:10	19.7	19.7	19.7	65	9.9	0	1	292	0.00	30.422 
04:15	19.5	19.5	19.5	65	9.7	0	1	292	0.00	30.422 
04:20	19.5	19.5	19.5	66	10.0	0	0	---	0.00	30.422 
04:25	19.5	19.5	19.5	66	10.0	0	1	292	0.00	30.422 
04:30	19.5	19.5	19.5	66	10.0	0	1	292	0.00	30.422 
04:35	19.5	19.5	19.5	66	10.0	0	1	292	0.00	30.422 
04:40	19.4	19.4	19.4	67	10.3	0	1	292	0.00	30.422 
04:45	19.4	19.4	19.4	67	10.3	0	0	---	0.00	30.422 
04:50	19.4	19.4	19.4	68	10.6	0	0	---	0.00	30.422 
04:55	19.2	19.2	19.2	68	10.4	0	0	---	0.00	30.422 
05:00	19.1	19.1	19.1	68	10.3	0	0	---	0.00	30.417 
05:05	18.8	18.8	18.8	69	10.3	0	1	292	0.00	30.417 
05:10	18.6	18.6	18.6	70	10.5	0	1	292	0.00	30.417 
05:15	18.6	18.6	18.6	71	10.8	0	2	292	0.00	30.406 
05:20	18.6	18.6	18.6	71	10.8	0	2	292	0.00	30.406 
05:25	18.6	18.6	18.6	71	10.8	0	1	292	0.00	30.406 
05:30	18.6	18.6	18.6	71	10.8	0	1	292	0.00	30.399 
05:35	18.6	18.6	18.6	72	11.1	0	1	292	0.00	30.399 
05:40	18.8	18.8	18.8	73	11.6	0	1	292	0.00	30.399 
05:45	18.9	18.9	18.9	73	11.7	0	0	---	0.00	30.394 
05:50	19.1	19.1	19.1	73	11.9	0	0	---	0.00	30.394 
05:55	19.2	19.2	19.2	73	12.0	0	1	292	0.00	30.394 
06:00	19.4	19.4	19.4	73	12.2	0	1	292	0.00	30.391 
06:05	19.5	19.5	19.5	73	12.3	0	1	292	0.00	30.391 
06:10	19.7	19.7	19.7	73	12.5	0	1	292	0.00	30.391 
06:15	19.9	19.9	19.9	73	12.7	0	1	292	0.00	30.380 
06:20	19.9	19.9	19.9	72	12.4	0	1	292	0.00	30.380 
06:25	20.0	20.0	20.0	72	12.5	0	3	292	0.00	30.380 
06:30	20.0	20.0	20.0	72	12.5	0	4	68	0.00	30.373 
06:35	20.0	20.0	20.0	72	12.5	0	4	248	0.00	30.373 
06:40	20.2	20.2	20.2	71	12.3	0	1	248	0.00	30.373 
06:45	20.2	20.2	20.2	72	12.6	0	3	248	0.00	30.363 
06:50	20.2	20.2	20.2	72	12.6	0	2	90	0.00	30.363 
06:55	20.2	20.2	20.2	71	12.3	0	2	90	0.00	30.363 
07:00	20.2	20.2	20.2	71	12.3	0	3	90	0.00	30.355 
07:05	20.2	20.2	20.2	72	12.6	0	2	90	0.00	30.355 
07:10	20.2	20.2	20.2	72	12.6	0	1	90	0.00	30.355 
07:15	20.2	20.2	20.2	72	12.6	0	3	112	0.00	30.354 
07:20	20.3	20.3	20.3	72	12.7	0	2	112	0.00	30.354 
07:25	20.3	20.3	20.3	72	12.7	0	1	112	0.00	30.354 
07:30	20.3	20.3	20.3	72	12.7	0	1	112	0.00	30.349 
07:35	20.3	20.3	20.3	72	12.7	0	2	112	0.00	30.349 
07:40	20.5	20.5	20.5	73	13.2	0	1	112	0.00	30.349 
07:45	20.5	20.5	20.5	73	13.2	0	2	112	0.00	30.344 
07:50	20.6	20.6	20.6	73	13.3	1	4	112	0.00	30.344 
07:55	20.8	20.8	20.8	72	13.2	0	2	202	0.00	30.344 
08:00	21.0	21.0	21.0	72	13.4	0	2	202	0.00	30.335 
08:05	21.1	21.1	21.1	72	13.5	0	3	270	0.00	30.335 
08:10	21.3	21.3	21.3	71	13.4	0	2	248	0.00	30.335 
08:15	21.4	21.4	21.4	71	13.5	0	3	248	0.00	30.349 
08:20	21.6	21.6	21.6	71	13.7	1	4	248	0.00	30.349 
08:25	21.8	21.8	21.8	71	13.9	0	2	248	0.00	30.349 
08:30	21.9	21.9	21.9	71	14.0	0	2	248	0.00	30.342 
08:35	22.2	22.2	22.2	71	14.3	0	2	248	0.00	30.342 
08:40	22.5	22.5	22.5	71	14.5	0	2	248	0.00	30.342 
08:45	22.7	22.7	22.7	70	14.4	0	2	248	0.00	30.332 
08:50	22.9	22.9	22.9	70	14.6	0	2	248	0.00	30.332 
08:55	23.2	23.2	23.2	70	14.9	0	1	270	0.00	30.332 
09:00	23.5	23.5	23.5	70	15.2	0	2	270	0.00	30.335 
09:05	23.8	23.8	23.8	69	15.1	0	3	270	0.00	30.335 
09:10	23.9	23.9	23.9	68	14.9	0	3	270	0.00	30.335 
09:15	24.2	24.2	24.2	67	14.8	0	4	248	0.00	30.337 
09:20	24.4	24.4	24.4	66	14.7	1	5	248	0.00	30.337 
09:25	24.7	24.7	24.7	65	14.6	1	5	248	0.00	30.337 
09:30	24.8	24.8	24.8	65	14.7	1	4	248	0.00	30.333 
09:35	25.1	25.1	25.1	64	14.7	1	6	248	0.00	30.333 
09:40	25.3	25.3	25.3	63	14.5	1	3	248	0.00	30.333 
09:45	25.4	25.4	25.4	63	14.6	1	5	248	0.00	30.330 
09:50	25.4	25.4	25.4	63	14.6	0	3	270	0.00	30.330 
09:55	25.6	25.6	25.6	63	14.8	1	5	248	0.00	30.330 
10:00	25.6	25.6	25.6	63	14.8	1	4	248	0.00	30.317 
10:05	25.8	25.8	25.8	63	15.0	1	3	225	0.00	30.317 
10:10	26.0	26.0	26.0	62	14.8	1	4	248	0.00	30.317 
10:15	26.1	26.1	26.1	61	14.5	2	9	248	0.00	30.311 
10:20	26.3	26.3	26.3	61	14.7	1	5	248	0.00	30.311 
10:25	26.6	26.6	26.6	61	15.0	1	3	248	0.00	30.311 
10:30	26.7	26.7	26.7	61	15.1	1	4	248	0.00	30.299 
10:35	26.9	26.9	26.9	59	14.5	2	6	248	0.00	30.299 
10:40	27.0	27.0	27.0	59	14.6	1	4	248	0.00	30.299 
10:45	27.2	27.2	27.2	59	14.8	1	6	248	0.00	30.294 
10:50	27.3	27.3	27.3	59	14.9	1	4	248	0.00	30.294 
10:55	27.5	27.5	27.5	58	14.7	1	4	248	0.00	30.294 
11:00	27.5	27.5	27.5	58	14.7	1	5	248	0.00	30.293 
11:05	27.6	27.6	27.6	58	14.8	1	6	248	0.00	30.293 
11:10	27.6	27.6	27.6	57	14.4	2	4	248	0.00	30.293 
11:15	27.8	27.8	27.8	57	14.6	1	4	248	0.00	30.289 
11:20	27.8	27.8	27.8	57	14.6	1	9	248	0.00	30.289 
11:25	27.9	27.9	27.9	57	14.7	1	4	270	0.00	30.289 
11:30	28.1	28.1	28.1	57	14.9	2	7	248	0.00	30.274 
11:35	28.1	28.1	28.1	56	14.5	2	7	248	0.00	30.274 
11:40	28.2	28.2	28.2	57	14.9	1	5	248	0.00	30.274 
11:45	28.4	28.4	28.4	56	14.7	2	6	248	0.00	30.268 
11:50	28.5	28.5	28.5	55	14.4	2	6	248	0.00	30.268 
11:55	28.5	28.5	28.5	55	14.4	2	7	248	0.00	30.268 
12:00	28.7	28.7	28.7	55	14.6	1	6	248	0.00	30.259 
12:05	28.5	28.5	28.5	54	14.0	2	6	248	0.00	30.259 
12:10	28.5	28.5	28.5	55	14.4	1	5	248	0.00	30.259 
12:15	28.7	28.7	28.7	55	14.6	1	5	248	0.00	30.244 
12:20	28.7	28.7	28.7	55	14.6	1	6	248	0.00	30.244 
12:25	28.7	28.7	28.7	54	14.2	2	7	248	0.00	30.244 
12:30	28.8	28.8	28.8	54	14.3	1	3	248	0.00	30.241 
12:35	28.8	28.8	28.8	53	13.9	2	6	248	0.00	30.241 
12:40	29.0	29.0	29.0	53	14.0	1	4	248	0.00	30.241 
12:45	29.1	29.1	29.1	53	14.1	2	5	248	0.00	30.238 
12:50	29.3	29.3	29.3	53	14.3	2	7	248	0.00	30.238 
12:55	29.4	29.4	29.4	53	14.4	1	3	248	0.00	30.238 
13:00	29.5	29.5	29.5	51	13.6	1	5	248	0.00	30.226 
13:05	29.5	29.5	29.5	51	13.6	2	6	248	0.00	30.226 
13:10	29.7	29.7	29.7	50	13.4	3	7	248	0.00	30.226 
13:15	29.8	29.8	29.8	50	13.5	1	6	248	0.00	30.216 
13:20	30.0	30.0	30.0	49	13.2	2	7	248	0.00	30.216 
13:25	30.0	30.0	30.0	50	13.6	1	5	225	0.00	30.216 
13:30	30.0	30.0	30.0	50	13.6	1	5	248	0.00	30.213 
13:35	29.7	29.7	29.7	49	12.9	2	5	248	0.00	30.213 
13:40	29.7	29.7	29.7	50	13.4	1	4	248	0.00	30.213 
13:45	29.8	29.8	29.8	50	13.5	1	4	248	0.00	30.212 
13:50	29.8	29.8	29.8	50	13.5	2	5	248	0.00	30.212 
13:55	29.8	29.8	29.8	50	13.5	1	4	248	0.00	30.212 
14:00	29.8	29.8	29.8	50	13.5	1	4	248	0.00	30.214 
14:05	30.0	30.0	30.0	50	13.6	1	6	248	0.00	30.214 
14:10	30.0	30.0	30.0	50	13.6	1	3	248	0.00	30.214 
14:15	30.1	30.1	30.1	50	13.7	0	4	68	0.00	30.202 
14:20	30.3	30.3	30.3	50	13.9	1	3	248	0.00	30.202 
14:25	30.3	30.3	30.3	50	13.9	1	4	248	0.00	30.202 
14:30	30.3	30.3	30.3	49	13.5	1	6	248	0.00	30.197 
14:35	30.3	30.3	30.3	49	13.5	1	4	248	0.00	30.197 
14:40	30.3	30.3	30.3	49	13.5	2	6	248	0.00	30.197 
14:45	30.3	30.3	30.3	49	13.5	1	4	248	0.00	30.198 
14:50	30.3	30.3	30.3	50	13.9	1	4	248	0.00	30.198 
14:55	30.3	30.3	30.3	49	13.5	1	6	248	0.00	30.198 
15:00	30.3	30.3	30.3	48	13.0	2	9	248	0.00	30.205 
15:05	30.4	30.4	30.4	49	13.6	2	7	248	0.00	30.205 
15:10	30.4	30.4	30.4	48	13.1	2	7	248	0.00	30.205 
15:15	30.6	30.6	30.6	49	13.7	1	4	248	0.00	30.196 
15:20	30.7	30.7	30.7	49	13.8	0	3	248	0.00	30.196 
15:25	30.7	30.7	30.7	48	13.4	2	6	248	0.00	30.196 
15:30	30.9	30.9	30.9	48	13.5	1	3	248	0.00	30.191 
15:35	30.9	30.9	30.9	48	13.5	1	9	248	0.00	30.191 
15:40	30.9	30.9	30.9	48	13.5	1	9	248	0.00	30.191 
15:45	30.9	30.9	30.9	48	13.5	1	4	248	0.00	30.192 
15:50	31.0	31.0	31.0	48	13.6	1	7	270	0.00	30.192 
15:55	31.0	31.0	31.0	48	13.6	1	4	248	0.00	30.192 
16:00	31.0	31.0	31.0	48	13.6	2	7	248	0.00	30.190 
16:05	31.0	31.0	31.0	49	14.1	1	5	248	0.00	30.190 
16:10	31.2	31.2	31.2	49	14.3	1	4	225	0.00	30.190 
16:15	31.2	31.2	31.2	50	14.8	1	6	248	0.00	30.183 
16:20	31.2	31.2	31.2	50	14.8	1	3	248	0.00	30.183 
16:25	31.0	31.0	31.0	51	15.0	1	5	248	0.00	30.183 
16:30	31.0	31.0	31.0	53	15.9	1	5	248	0.00	30.180 
16:35	30.9	30.9	30.9	55	16.7	2	11	248	0.00	30.180 
16:40	30.7	30.7	30.7	56	16.9	1	6	248	0.00	30.180 
16:45	30.6	30.6	30.6	57	17.2	1	5	248	0.00	30.181 
16:50	30.6	30.6	30.6	58	17.6	1	3	248	0.00	30.181 
16:55	30.4	30.4	30.4	59	17.8	0	3	248	0.00	30.181 
17:00	30.4	30.4	30.4	60	18.2	1	3	270	0.00	30.180 
17:05	30.4	30.4	30.4	61	18.6	1	6	270	0.00	30.180 
17:10	30.3	30.3	30.3	61	18.5	1	6	248	0.00	30.180 
17:15	30.3	30.3	30.3	61	18.5	0	5	270	0.00	30.175 
17:20	30.3	30.3	30.3	60	18.1	1	4	270	0.00	30.175 
17:25	30.3	30.3	30.3	60	18.1	0	3	270	0.00	30.175 
17:30	30.3	30.3	30.3	58	17.3	1	3	270	0.00	30.174 
17:35	30.4	30.4	30.4	58	17.4	1	4	248	0.00	30.174 
17:40	30.4	30.4	30.4	57	17.0	1	3	248	0.00	30.174 
17:45	30.6	30.6	30.6	56	16.8	1	7	248	0.00	30.183 
17:50	30.6	30.6	30.6	57	17.2	0	4	270	0.00	30.183 
17:55	30.6	30.6	30.6	57	17.2	0	2	270	0.00	30.183 
18:00	30.6	30.6	30.6	56	16.8	1	3	270	0.00	30.186 
18:05	30.7	30.7	30.7	56	16.9	0	3	270	0.00	30.186 
18:10	30.7	30.7	30.7	56	16.9	1	4	270	0.00	30.186 
18:15	30.7	30.7	30.7	56	16.9	1	6	270	0.00	30.180 
18:20	30.7	30.7	30.7	55	16.5	1	3	270	0.00	30.180 
18:25	30.9	30.9	30.9	54	16.2	1	5	248	0.00	30.180 
18:30	30.9	30.9	30.9	54	16.2	1	4	248	0.00	30.178 
18:35	30.9	30.9	30.9	54	16.2	1	5	248	0.00	30.178 
18:40	30.9	30.9	30.9	54	16.2	1	3	248	0.00	30.178 
18:45	30.9	30.9	30.9	54	16.2	0	2	248	0.00	30.175 
18:50	30.9	30.9	30.9	54	16.2	0	2	248	0.00	30.175 
18:55	31.0	31.0	31.0	53	15.9	1	4	248	0.00	30.175 
19:00	31.0	31.0	31.0	53	15.9	0	2	248	0.00	30.170 
19:05	31.0	31.0	31.0	53	15.9	1	6	248	0.00	30.170 
19:10	31.2	31.2	31.2	52	15.6	1	4	248	0.00	30.170 
19:15	31.2	31.2	31.2	52	15.6	1	5	248	0.00	30.163 
19:20	31.2	31.2	31.2	52	15.6	1	3	248	0.00	30.163 
19:25	31.3	31.3	31.3	52	15.7	0	2	248	0.00	30.163 
19:30	31.3	31.3	31.3	52	15.7	1	3	248	0.00	30.161 
19:35	31.3	31.3	31.3	52	15.7	0	3	248	0.00	30.161 
19:40	31.3	31.3	31.3	52	15.7	1	4	248	0.00	30.161 
19:45	31.3	31.3	31.3	52	15.7	0	3	248	0.00	30.164 
19:50	31.5	31.5	31.5	52	15.9	1	3	248	0.00	30.164 
19:55	31.5	31.5	31.5	51	15.5	1	4	248	0.00	30.164 
20:00	31.5	31.5	31.5	52	15.9	0	3	248	0.00	30.168 
20:05	31.5	31.5	31.5	52	15.9	0	2	248	0.00	30.168 
20:10	31.5	31.5	31.5	52	15.9	0	2	248	0.00	30.168 
20:15	31.6	31.6	31.6	52	16.0	0	2	248	0.00	30.172 
20:20	31.6	31.6	31.6	52	16.0	1	2	248	0.00	30.172 
20:25	31.6	31.6	31.6	53	16.5	1	4	248	0.00	30.172 
20:30	31.6	31.6	31.6	53	16.5	1	5	248	0.00	30.174 
20:35	31.6	31.6	31.6	53	16.5	2	6	248	0.00	30.174 
20:40	31.6	31.6	31.6	53	16.5	2	6	248	0.00	30.174 
20:45	31.6	31.6	31.6	54	16.9	1	4	248	0.00	30.168 
20:50	31.6	31.6	31.6	54	16.9	1	4	248	0.00	30.168 
20:55	31.6	31.6	31.6	54	16.9	1	4	248	0.00	30.168 
21:00	31.6	31.6	31.6	55	17.3	2	6	248	0.00	30.171 
21:05	31.6	31.6	31.6	55	17.3	1	4	248	0.00	30.171 
21:10	31.5	31.5	31.5	58	18.4	2	5	248	0.00	30.171 
21:15	31.3	31.3	31.3	59	18.7	1	5	248	0.00	30.168 
21:20	31.2	31.2	31.2	60	19.0	1	3	248	0.00	30.168 
21:25	31.2	31.2	31.2	60	19.0	1	6	248	0.00	30.168 
21:30	31.2	31.2	31.2	59	18.6	3	10	248	0.00	30.164 
21:35	31.2	31.2	31.2	60	19.0	2	7	248	0.00	30.164 
21:40	31.2	31.2	31.2	61	19.3	2	6	248	0.00	30.164 
21:45	31.0	31.0	31.0	61	19.1	2	6	248	0.00	30.172 
21:50	31.0	31.0	31.0	62	19.5	2	5	248	0.00	30.172 
21:55	31.0	31.0	31.0	62	19.5	1	3	248	0.00	30.172 
22:00	31.0	31.0	31.0	62	19.5	3	11	248	0.00	30.174 
22:05	30.9	30.9	30.9	63	19.8	2	7	248	0.00	30.174 
22:10	30.9	30.9	30.9	64	20.2	2	7	248	0.00	30.174 
22:15	30.9	30.9	30.9	64	20.2	0	4	248	0.00	30.168 
22:20	30.7	30.7	30.7	66	20.7	1	9	248	0.00	30.168 
22:25	30.6	30.6	30.6	67	21.0	1	4	248	0.00	30.168 
22:30	30.4	30.4	30.4	68	21.1	1	4	248	0.00	30.169 
22:35	30.3	30.3	30.3	69	21.4	0	2	248	0.00	30.169 
22:40	30.3	30.3	30.3	70	21.7	1	6	248	0.00	30.169 
22:45	30.3	30.3	30.3	70	21.7	1	3	248	0.00	30.167 
22:50	30.1	30.1	30.1	71	21.9	1	4	248	0.00	30.167 
22:55	30.1	30.1	30.1	72	22.2	1	4	248	0.00	30.167 
23:00	30.1	30.1	30.1	73	22.5	1	5	248	0.00	30.168 
23:05	30.0	30.0	30.0	73	22.4	1	5	248	0.00	30.168 
23:10	30.0	30.0	30.0	74	22.7	0	3	248	0.00	30.168 
23:15	29.8	29.8	29.8	74	22.5	1	6	248	0.00	30.163 
23:20	29.8	29.8	29.8	75	22.9	2	4	248	0.00	30.163 
23:25	29.7	29.7	29.7	76	23.1	1	4	248	0.00	30.163 
23:30	29.7	29.7	29.7	77	23.4	1	4	248	0.00	30.161 
23:35	29.5	29.5	29.5	78	23.5	0	3	248	0.00	30.161 
23:40	29.5	29.5	29.5	78	23.5	1	4	248	0.00	30.161 
23:45	29.5	29.5	29.5	78	23.5	0	4	248	0.00	30.156 
23:50	29.5	29.5	29.5	79	23.8	1	3	248	0.00	30.156 
23:55	29.5	29.5	29.5	79	23.8	1	3	248	0.00	30.156 

CoCoRaHS
IN-AL-39
A2 Web Hosting
Creative Commons License
GoDaddy
search engine by freefind advanced

loaded 2018-11-13 22:30:00 • last modified 2010-11-18 10:43:29
Privacy PolicyDisclaimer
• wx.awcolley.com is powered by PmWiki v.2002016 •
• all content (unless otherwise noted) © 2018 A W Colley